• Join FlightAware (Why Join?)
  • Login
  • US Flag 
07:13PM EDT


 

Airport Tracker/Info


-or-


 

Live Flight TrackerFlight Track Log ✈ TYR850 ✈ 09-Apr-2014 ✈ LATI / TIA - LOWW / VIE

Flight Track Log - Related Links

Times and Time Zones

All times are in EDT time to prevent confusion due to time zone crossing. See the TYR850 flight status page for this flight to view local times or setup timezone preferences in your user account.

Time Position Orientation Groundspeed Altitude Reporting Facility
EDT Latitude Longitude Course Direction KTS MPH feet Rate Location/Type
10:46PM 42.0000 19.4740 343° North  Level Estimated
10:47PM 42.0975 19.4324 342° North  Level Estimated
10:48PM 42.1949 19.3908 342° North  Level Estimated
10:49PM 42.2924 19.3490 342° North  Level Estimated
10:50PM 42.3899 19.3071 342° North  Level Estimated
10:51PM 42.4873 19.2650 342° North  Level Estimated
10:52PM 42.5847 19.2228 342° North  Level Estimated
10:53PM 42.6821 19.1805 342° North  Level Estimated
10:54PM 42.7795 19.1381 342° North  Level Estimated
10:55PM 42.8768 19.0955 342° North  Level Estimated
10:56PM 42.9742 19.0528 342° North  Level Estimated
10:57PM 43.0715 19.0099 342° North  Level Estimated
10:58PM 43.1688 18.9669 342° North  Level Estimated
10:59PM 43.2661 18.9238 342° North  Level Estimated
11:00PM 43.3634 18.8805 342° North  Level Estimated
11:01PM 43.4607 18.8371 342° North  Level Estimated
11:02PM 43.5579 18.7936 342° North  Level Estimated
11:03PM 43.6552 18.7499 342° North  Level Estimated
11:04PM 43.7524 18.7061 342° North  Level Estimated
11:05PM 43.8496 18.6621 342° North  Level Estimated
11:06PM 43.9468 18.6180 342° North  Level Estimated
11:07PM 44.0439 18.5737 342° North  Level Estimated
11:08PM 44.1411 18.5293 342° North  Level Estimated
11:09PM 44.2382 18.4848 342° North  Level Estimated
11:10PM 44.3354 18.4401 342° North  Level Estimated
11:11PM 44.4324 18.3952 342° North  Level Estimated
11:12PM 44.5295 18.3502 342° North  Level Estimated
11:13PM 44.6266 18.3051 342° North  Level Estimated
11:14PM 44.7236 18.2598 342° North  Level Estimated
11:15PM 44.8207 18.2144 342° North  Level Estimated
11:16PM 44.9177 18.1688 342° North  Level Estimated
11:17PM 45.0147 18.1230 342° North  Level Estimated
11:18PM 45.1116 18.0771 342° North  Level Estimated
11:19PM 45.2086 18.0310 341° North  Level Estimated
11:20PM 45.3055 17.9848 341° North  Level Estimated
11:21PM 45.4025 17.9384 341° North  Level Estimated
11:22PM 45.4994 17.8919 341° North  Level Estimated
11:23PM 45.5962 17.8452 341° North  Level Estimated
11:24PM 45.6931 17.7983 341° North  Level Estimated
11:25PM 45.7899 17.7513 341° North  Level Estimated
11:26PM 45.8867 17.7041 341° North  Level Estimated
11:27PM 45.9836 17.6567 341° North  Level Estimated
11:28PM 46.0803 17.6092 341° North  Level Estimated
11:29PM 46.1771 17.5615 341° North  Level Estimated
11:30PM 46.2738 17.5137 341° North  Level Estimated
11:31PM 46.3706 17.4657 341° North  Level Estimated
11:32PM 46.4673 17.4175 341° North  Level Estimated
11:33PM 46.5639 17.3691 341° North  Level Estimated
11:34PM 46.6606 17.3206 341° North  Level Estimated
11:35PM 46.7573 17.2719 341° North  Level Estimated
11:36PM 46.8539 17.2230 341° North  Level Estimated
11:37PM 46.9505 17.1739 341° North  Level Estimated
11:38PM 47.0471 17.1246 341° North  Level Estimated
11:39PM 47.1436 17.0752 341° North  Level Estimated
11:40PM 47.2402 17.0256 341° North  Level Estimated
11:41PM 47.3367 16.9758 341° North  Level Estimated
11:42PM 47.4332 16.9259 341° North  Level Estimated
11:43PM 47.5296 16.8757 341° North  Level Estimated
11:44PM 47.6261 16.8254 341° North  Level Estimated
11:45PM 47.7225 16.7749 341° North  Level Estimated
11:46PM 47.8189 16.7242 341° North  Level Estimated
11:47PM 47.9153 16.6733 341° North  Level Estimated
11:48PM 48.0117 16.6222 340° North  Level Estimated
11:49PM 48.1080 16.5709 340° North  Level Estimated
11:50PM 48.1103 16.5697 340° North  Level Estimated
11:51PM 48.1103 16.5697 North  Level Estimated
11:52PM 48.1103 16.5697 North  Level Estimated
11:53PM 48.1103 16.5697 North  Level Estimated
11:54PM 48.1103 16.5697 North  Level Estimated
11:55PM 48.1103 16.5697 North  Level Estimated
11:56PM 48.1103 16.5697 North  Level Estimated
11:57PM 48.1103 16.5697 North  Level Estimated
11:58PM 48.1103 16.5697 North  Level Estimated
11:59PM 48.1103 16.5697 North  Level Estimated
12:00AM 48.1103 16.5697 North  Level Estimated
12:01AM 48.1103 16.5697 North  Level Estimated
12:02AM 48.1103 16.5697 North  Level Estimated
12:03AM 48.1103 16.5697 North  Level Estimated
12:04AM 48.1103 16.5697 North  Level Estimated
12:05AM 48.1103 16.5697 North  Level Estimated